createdAt,value
2023-02-08T00:00:02.004Z,67.51
2023-02-08T00:04:08.749Z,67.48
2023-02-08T00:08:11.775Z,67.28
2023-02-08T00:12:14.853Z,67.21
2023-02-08T00:16:18.503Z,67.56
2023-02-08T00:20:23.434Z,67.49
2023-02-08T00:24:26.395Z,67.54
2023-02-08T00:28:29.438Z,67.41
2023-02-08T00:32:32.576Z,67.46
2023-02-08T00:36:37.063Z,67.32
2023-02-08T00:40:44.323Z,67.48
2023-02-08T00:44:47.398Z,67.21
2023-02-08T00:48:53.103Z,67.39
2023-02-08T00:52:57.520Z,67.71
2023-02-08T00:57:01.614Z,67.69
2023-02-08T01:01:15.078Z,67.92
2023-02-08T01:05:19.321Z,67.95
2023-02-08T01:09:23.774Z,67.82
2023-02-08T01:13:29.674Z,68.19
2023-02-08T01:17:32.802Z,67.88
2023-02-08T01:21:39.338Z,68.32
2023-02-08T01:25:43.826Z,67.86
2023-02-08T01:29:46.812Z,67.96
2023-02-08T01:33:50.435Z,68.11
2023-02-08T01:37:53.422Z,67.85
2023-02-08T01:41:57.844Z,67.98
2023-02-08T01:46:00.995Z,67.87
2023-02-08T01:50:08.230Z,67.78
2023-02-08T01:54:15.258Z,67.86
2023-02-08T01:58:21.128Z,67.90
2023-02-08T02:02:25.277Z,67.64
2023-02-08T02:06:34.683Z,67.91
2023-02-08T02:10:53.879Z,67.85
2023-02-08T02:14:58.566Z,67.79
2023-02-08T02:19:01.618Z,67.79
2023-02-08T02:23:48.200Z,67.76
2023-02-08T02:28:15.253Z,68.01
2023-02-08T02:32:38.701Z,68.11
2023-02-08T02:36:54.030Z,68.12
2023-02-08T02:41:04.780Z,67.88
2023-02-08T02:45:20.436Z,68.15
2023-02-08T02:49:30.250Z,67.94
2023-02-08T02:53:43.122Z,67.75
2023-02-08T02:57:49.052Z,67.98
2023-02-08T03:01:54.611Z,67.94
2023-02-08T03:06:04.176Z,67.73
2023-02-08T03:10:19.154Z,68.12
2023-02-08T03:14:35.118Z,68.09
2023-02-08T03:18:52.696Z,67.65
2023-02-08T03:23:03.565Z,67.97
2023-02-08T03:27:12.286Z,68.10
2023-02-08T03:31:24.144Z,68.05
2023-02-08T03:35:32.154Z,68.24
2023-02-08T03:39:39.477Z,68.11
2023-02-08T03:43:46.938Z,68.06
2023-02-08T03:47:52.900Z,68.52
2023-02-08T03:51:59.144Z,68.33
2023-02-08T03:56:08.148Z,68.47
2023-02-08T04:00:14.571Z,68.44
2023-02-08T04:04:20.639Z,68.49
2023-02-08T04:08:23.870Z,68.69
2023-02-08T04:12:28.562Z,68.39
2023-02-08T04:16:31.553Z,68.51
2023-02-08T04:20:34.899Z,68.57
2023-02-08T04:24:37.851Z,68.69
2023-02-08T04:28:42.484Z,68.76
2023-02-08T04:32:45.484Z,68.55
2023-02-08T04:36:48.541Z,68.47
2023-02-08T04:40:51.624Z,68.71
2023-02-08T04:44:56.273Z,68.51
2023-02-08T04:48:59.224Z,68.47
2023-02-08T04:53:02.333Z,68.46
2023-02-08T04:57:05.409Z,68.46
2023-02-08T05:01:11.362Z,68.42
2023-02-08T05:05:14.382Z,68.37
2023-02-08T05:09:17.499Z,68.40
2023-02-08T05:13:20.529Z,68.67
2023-02-08T05:17:25.095Z,68.57
2023-02-08T05:21:28.330Z,68.65
2023-02-08T05:25:31.712Z,68.27
2023-02-08T05:29:34.688Z,68.46
2023-02-08T05:33:39.220Z,68.71
2023-02-08T05:37:42.154Z,68.63
2023-02-08T05:41:45.342Z,68.70
2023-02-08T05:45:48.288Z,68.50
2023-02-08T05:49:52.779Z,68.52
2023-02-08T05:53:55.781Z,68.86
2023-02-08T05:57:58.816Z,68.73
2023-02-08T06:02:01.804Z,68.63
2023-02-08T06:06:07.063Z,68.21
2023-02-08T06:10:11.561Z,68.35
2023-02-08T06:14:14.797Z,68.30
2023-02-08T06:18:18.868Z,68.17
2023-02-08T06:22:23.506Z,68.51
2023-02-08T06:26:26.492Z,68.65
2023-02-08T06:30:29.937Z,68.98
2023-02-08T06:34:33.135Z,68.74
2023-02-08T06:38:37.607Z,69.90
2023-02-08T06:42:40.886Z,69.23
2023-02-08T06:46:43.944Z,69.08
2023-02-08T06:50:46.916Z,68.73
2023-02-08T06:54:51.398Z,68.70
2023-02-08T06:58:54.417Z,68.82
2023-02-08T07:02:57.498Z,69.16
2023-02-08T07:07:00.529Z,69.00
2023-02-08T07:11:09.405Z,69.15
2023-02-08T07:15:13.740Z,69.17
2023-02-08T07:19:16.840Z,69.26
2023-02-08T07:23:20.018Z,69.15
2023-02-08T07:27:26.033Z,69.56
2023-02-08T07:31:29.156Z,69.74
2023-02-08T07:35:32.275Z,69.73
2023-02-08T07:39:35.321Z,69.67
2023-02-08T07:43:41.158Z,69.82
2023-02-08T07:47:44.159Z,70.01
2023-02-08T07:51:47.280Z,70.05
2023-02-08T07:55:50.233Z,70.25
2023-02-08T07:59:54.649Z,70.62
2023-02-08T08:03:57.694Z,70.54
2023-02-08T08:08:00.832Z,70.84
2023-02-08T08:12:04.294Z,70.55
2023-02-08T08:16:08.946Z,70.75
2023-02-08T08:20:12.740Z,70.95
2023-02-08T08:24:15.975Z,70.81
2023-02-08T08:28:19.104Z,70.88
2023-02-08T08:32:23.619Z,71.10
2023-02-08T08:36:26.648Z,71.35
2023-02-08T08:40:29.834Z,71.27
2023-02-08T08:44:33.043Z,71.44
2023-02-08T08:48:38.842Z,71.56
2023-02-08T08:52:42.776Z,71.72
2023-02-08T08:56:46.199Z,71.51
2023-02-08T09:00:49.201Z,71.09
2023-02-08T09:04:53.642Z,71.22
2023-02-08T09:08:56.616Z,71.22
2023-02-08T09:13:00.243Z,71.15
2023-02-08T09:17:03.304Z,71.24
2023-02-08T09:21:09.290Z,71.34
2023-02-08T09:25:12.470Z,71.29
2023-02-08T09:29:15.669Z,71.19
2023-02-08T09:33:18.636Z,71.29
2023-02-08T09:37:23.050Z,71.23
2023-02-08T09:41:42.648Z,70.78
2023-02-08T09:46:00.284Z,70.87
2023-02-08T09:50:11.827Z,70.74
2023-02-08T09:54:19.950Z,70.62
2023-02-08T09:58:27.446Z,70.31
2023-02-08T10:02:33.151Z,70.48
2023-02-08T10:06:36.183Z,70.43
2023-02-08T10:10:52.108Z,70.19
2023-02-08T10:15:07.224Z,70.01
2023-02-08T10:19:24.964Z,69.71
2023-02-08T10:23:39.266Z,69.68
2023-02-08T10:27:56.314Z,70.05
2023-02-08T10:32:16.018Z,69.89
2023-02-08T10:36:22.571Z,69.14
2023-02-08T10:40:35.756Z,68.94
2023-02-08T10:44:54.997Z,68.54
2023-02-08T10:49:08.236Z,68.66
2023-02-08T10:53:16.813Z,68.49
2023-02-08T10:57:25.541Z,67.40
2023-02-08T11:01:30.434Z,67.77
2023-02-08T11:05:35.182Z,68.01
2023-02-08T11:09:38.271Z,67.36
2023-02-08T11:13:43.604Z,66.57
2023-02-08T11:17:48.753Z,66.68
2023-02-08T11:21:53.269Z,66.07
2023-02-08T11:26:14.142Z,65.49
2023-02-08T11:30:23.489Z,65.39
2023-02-08T11:34:29.666Z,64.51
2023-02-08T11:38:35.359Z,64.47
2023-02-08T11:42:44.366Z,63.80
2023-02-08T11:46:49.584Z,64.19
2023-02-08T11:51:00.131Z,64.36
2023-02-08T11:55:24.675Z,64.03
2023-02-08T11:59:29.190Z,63.63
2023-02-08T12:03:37.310Z,63.54
2023-02-08T12:08:05.710Z,63.17
2023-02-08T12:12:21.997Z,63.13
2023-02-08T12:16:46.703Z,62.18
2023-02-08T12:20:57.358Z,61.96
2023-02-08T12:25:20.065Z,61.71
2023-02-08T12:29:47.470Z,62.08
2023-02-08T12:34:00.019Z,61.31
2023-02-08T12:38:39.889Z,61.05
2023-02-08T12:42:55.904Z,60.65
2023-02-08T12:47:10.189Z,60.82
2023-02-08T12:51:25.635Z,60.57
2023-02-08T12:55:32.250Z,60.64
2023-02-08T12:59:41.527Z,60.74
2023-02-08T13:03:49.332Z,60.22
2023-02-08T13:08:02.780Z,60.27
2023-02-08T13:12:12.872Z,60.14
2023-02-08T13:16:22.648Z,60.31
2023-02-08T13:20:34.668Z,60.47
2023-02-08T13:24:41.409Z,60.46
2023-02-08T13:28:48.449Z,60.45
2023-02-08T13:32:54.419Z,60.30
2023-02-08T13:37:00.641Z,59.83
2023-02-08T13:41:07.667Z,59.97
2023-02-08T13:45:23.795Z,59.59
2023-02-08T13:49:55.044Z,59.72
2023-02-08T13:54:12.604Z,59.78
2023-02-08T13:59:01.515Z,59.46
2023-02-08T14:03:22.973Z,59.82
2023-02-08T14:07:42.044Z,59.44
2023-02-08T14:11:49.695Z,59.42
2023-02-08T14:16:30.773Z,59.54
2023-02-08T14:20:40.016Z,59.64
2023-02-08T14:24:48.310Z,59.64
2023-02-08T14:28:56.887Z,59.70
2023-02-08T14:33:19.789Z,59.39
2023-02-08T14:37:31.176Z,59.79
2023-02-08T14:41:50.161Z,59.84
2023-02-08T14:45:54.634Z,59.72
2023-02-08T14:50:06.705Z,59.71
2023-02-08T14:54:20.935Z,59.79
2023-02-08T14:58:30.773Z,59.76
2023-02-08T15:02:35.293Z,60.02
2023-02-08T15:07:11.161Z,59.97
2023-02-08T15:11:22.608Z,59.93
2023-02-08T15:15:32.664Z,60.11
2023-02-08T15:19:38.804Z,60.11
2023-02-08T15:23:41.929Z,60.06
2023-02-08T15:27:49.064Z,60.00
2023-02-08T15:31:54.471Z,60.24
2023-02-08T15:36:00.102Z,60.42
2023-02-08T15:40:04.667Z,60.59
2023-02-08T15:44:18.613Z,60.37
2023-02-08T15:48:23.167Z,60.40
2023-02-08T15:52:32.975Z,60.29
2023-02-08T15:56:42.368Z,60.38
2023-02-08T16:00:47.359Z,61.40
2023-02-08T16:04:52.321Z,61.58
2023-02-08T16:08:59.415Z,61.95
2023-02-08T16:13:05.599Z,61.91
2023-02-08T16:17:39.518Z,60.63
2023-02-08T16:21:44.104Z,59.83
2023-02-08T16:25:49.202Z,59.54
2023-02-08T16:29:52.448Z,59.58
2023-02-08T16:34:00.973Z,59.77
2023-02-08T16:38:10.130Z,59.98
2023-02-08T16:42:32.055Z,59.73
2023-02-08T16:46:45.126Z,59.81
2023-02-08T16:50:48.112Z,59.90
2023-02-08T16:54:52.536Z,60.16
2023-02-08T16:58:56.032Z,60.21
2023-02-08T17:02:59.195Z,60.40
2023-02-08T17:07:02.334Z,60.38
2023-02-08T17:11:06.786Z,60.34
2023-02-08T17:15:10.224Z,60.55
2023-02-08T17:19:17.946Z,60.60
2023-02-08T17:23:21.356Z,60.83
2023-02-08T17:27:26.773Z,60.75
2023-02-08T17:31:30.457Z,60.77
2023-02-08T17:35:34.451Z,60.92
2023-02-08T17:39:37.400Z,61.14
2023-02-08T17:43:42.011Z,61.50
2023-02-08T17:47:45.024Z,61.38
2023-02-08T17:51:48.080Z,61.38
2023-02-08T17:55:51.216Z,61.57
2023-02-08T17:59:55.842Z,61.63
2023-02-08T18:04:01.077Z,61.77
2023-02-08T18:08:04.370Z,61.82
2023-02-08T18:12:07.953Z,62.24
2023-02-08T18:16:14.505Z,62.31
2023-02-08T18:20:18.200Z,62.43
2023-02-08T18:24:21.212Z,62.63
2023-02-08T18:28:24.436Z,62.68
2023-02-08T18:32:29.744Z,62.61
2023-02-08T18:36:32.711Z,62.86
2023-02-08T18:40:35.744Z,62.81
2023-02-08T18:44:39.513Z,63.00
2023-02-08T18:48:44.689Z,63.14
2023-02-08T18:52:50.013Z,63.22
2023-02-08T18:56:55.925Z,63.13
2023-02-08T19:01:06.233Z,63.24
2023-02-08T19:05:10.798Z,63.23
2023-02-08T19:09:14.002Z,63.46
2023-02-08T19:13:17.033Z,63.48
2023-02-08T19:17:20.449Z,63.32
2023-02-08T19:21:25.204Z,63.59
2023-02-08T19:25:28.187Z,63.62
2023-02-08T19:29:33.279Z,63.83
2023-02-08T19:33:36.567Z,64.08
2023-02-08T19:37:42.454Z,64.02
2023-02-08T19:41:46.480Z,64.03
2023-02-08T19:45:49.573Z,64.12
2023-02-08T19:49:52.670Z,64.20
2023-02-08T19:53:58.123Z,64.35
2023-02-08T19:58:01.140Z,64.35
2023-02-08T20:02:04.860Z,64.27
2023-02-08T20:06:15.310Z,64.19
2023-02-08T20:10:19.961Z,64.36
2023-02-08T20:14:23.100Z,64.45
2023-02-08T20:18:26.616Z,64.53
2023-02-08T20:22:29.617Z,64.59
2023-02-08T20:26:34.111Z,64.73
2023-02-08T20:30:37.147Z,64.60
2023-02-08T20:34:47.455Z,64.86
2023-02-08T20:38:59.473Z,64.66
2023-02-08T20:43:03.868Z,64.71
2023-02-08T20:47:07.022Z,65.00
2023-02-08T20:51:12.419Z,64.98
2023-02-08T20:55:15.425Z,65.39
2023-02-08T20:59:20.039Z,65.28
2023-02-08T21:03:23.373Z,65.45
2023-02-08T21:07:26.739Z,65.30
2023-02-08T21:11:31.397Z,65.72
2023-02-08T21:15:36.192Z,66.10
2023-02-08T21:19:40.021Z,66.04
2023-02-08T21:23:44.336Z,66.23
2023-02-08T21:27:47.362Z,66.17
2023-02-08T21:31:54.414Z,66.39
2023-02-08T21:35:58.308Z,66.58
2023-02-08T21:40:01.416Z,66.29
2023-02-08T21:44:08.242Z,66.26
2023-02-08T21:48:12.795Z,66.36
2023-02-08T21:52:41.654Z,66.62
2023-02-08T21:56:44.736Z,66.54
2023-02-08T22:00:47.705Z,66.57
2023-02-08T22:04:53.855Z,66.36
2023-02-08T22:08:56.846Z,66.28
2023-02-08T22:13:00.296Z,66.31
2023-02-08T22:17:03.368Z,66.23
2023-02-08T22:21:08.363Z,66.69
2023-02-08T22:25:11.387Z,66.63
2023-02-08T22:29:14.462Z,66.60
2023-02-08T22:33:17.622Z,66.22
2023-02-08T22:37:22.058Z,66.41
2023-02-08T22:41:25.116Z,66.46
2023-02-08T22:45:28.201Z,66.46
2023-02-08T22:49:31.213Z,66.44
2023-02-08T22:53:35.853Z,66.39
2023-02-08T22:57:38.967Z,66.60
2023-02-08T23:01:42.202Z,66.87
2023-02-08T23:05:47.822Z,66.73
2023-02-08T23:09:52.340Z,66.64
2023-02-08T23:13:55.723Z,66.87
2023-02-08T23:17:59.290Z,67.05
2023-02-08T23:22:02.276Z,67.03
2023-02-08T23:26:07.795Z,67.26
2023-02-08T23:30:11.936Z,67.37
2023-02-08T23:34:15.090Z,67.53
2023-02-08T23:38:18.105Z,67.73
2023-02-08T23:42:28.457Z,67.92
2023-02-08T23:46:31.743Z,67.67
2023-02-08T23:50:35.165Z,67.66
2023-02-08T23:54:38.490Z,67.45
2023-02-08T23:58:43.757Z,67.64
